sensor_id;sensor_type;location;lat;lon;timestamp;pressure;altitude;pressure_sealevel;temperature
63158;BMP280;49381;49.338;8.794;2023-02-15T00:01:33;101796.25;;;3.00
63158;BMP280;49381;49.338;8.794;2023-02-15T00:03:33;101807.47;;;3.06
63158;BMP280;49381;49.338;8.794;2023-02-15T00:05:34;101802.53;;;3.08
63158;BMP280;49381;49.338;8.794;2023-02-15T00:07:34;101799.78;;;3.03
63158;BMP280;49381;49.338;8.794;2023-02-15T00:09:35;101800.75;;;3.05
63158;BMP280;49381;49.338;8.794;2023-02-15T00:11:35;101799.94;;;3.06
63158;BMP280;49381;49.338;8.794;2023-02-15T00:13:37;101798.31;;;3.07
63158;BMP280;49381;49.338;8.794;2023-02-15T00:15:38;101804.19;;;3.07
63158;BMP280;49381;49.338;8.794;2023-02-15T00:17:38;101797.78;;;3.12
63158;BMP280;49381;49.338;8.794;2023-02-15T00:19:39;101797.28;;;3.18
63158;BMP280;49381;49.338;8.794;2023-02-15T00:21:40;101797.53;;;3.22
63158;BMP280;49381;49.338;8.794;2023-02-15T00:23:40;101805.19;;;3.24
63158;BMP280;49381;49.338;8.794;2023-02-15T00:25:41;101793.66;;;3.27
63158;BMP280;49381;49.338;8.794;2023-02-15T00:27:43;101793.94;;;3.31
63158;BMP280;49381;49.338;8.794;2023-02-15T00:29:46;101790.75;;;3.34
63158;BMP280;49381;49.338;8.794;2023-02-15T00:31:47;101788.41;;;3.37
63158;BMP280;49381;49.338;8.794;2023-02-15T00:33:47;101785.88;;;3.37
63158;BMP280;49381;49.338;8.794;2023-02-15T00:35:48;101790.91;;;3.37
63158;BMP280;49381;49.338;8.794;2023-02-15T00:37:48;101798.00;;;3.29
63158;BMP280;49381;49.338;8.794;2023-02-15T00:39:48;101798.88;;;3.30
63158;BMP280;49381;49.338;8.794;2023-02-15T00:41:49;101797.13;;;3.29
63158;BMP280;49381;49.338;8.794;2023-02-15T00:43:49;101789.00;;;3.33
63158;BMP280;49381;49.338;8.794;2023-02-15T00:45:51;101798.06;;;3.31
63158;BMP280;49381;49.338;8.794;2023-02-15T00:47:52;101794.63;;;3.29
63158;BMP280;49381;49.338;8.794;2023-02-15T00:49:52;101794.13;;;3.34
63158;BMP280;49381;49.338;8.794;2023-02-15T00:51:52;101783.31;;;3.35
63158;BMP280;49381;49.338;8.794;2023-02-15T00:53:53;101777.75;;;3.41
63158;BMP280;49381;49.338;8.794;2023-02-15T00:55:53;101786.94;;;3.40
63158;BMP280;49381;49.338;8.794;2023-02-15T00:57:54;101778.47;;;3.38
63158;BMP280;49381;49.338;8.794;2023-02-15T00:59:54;101786.84;;;3.39
63158;BMP280;49381;49.338;8.794;2023-02-15T01:01:56;101785.88;;;3.37
63158;BMP280;49381;49.338;8.794;2023-02-15T01:03:56;101780.78;;;3.35
63158;BMP280;49381;49.338;8.794;2023-02-15T01:05:56;101774.13;;;3.36
63158;BMP280;49381;49.338;8.794;2023-02-15T01:07:57;101776.38;;;3.31
63158;BMP280;49381;49.338;8.794;2023-02-15T01:09:58;101776.03;;;3.40
63158;BMP280;49381;49.338;8.794;2023-02-15T01:11:58;101775.25;;;3.41
63158;BMP280;49381;49.338;8.794;2023-02-15T01:13:58;101774.66;;;3.45
63158;BMP280;49381;49.338;8.794;2023-02-15T01:15:59;101769.56;;;3.43
63158;BMP280;49381;49.338;8.794;2023-02-15T01:18:00;101768.78;;;3.30
63158;BMP280;49381;49.338;8.794;2023-02-15T01:20:01;101773.34;;;3.37
63158;BMP280;49381;49.338;8.794;2023-02-15T01:22:01;101772.75;;;3.41
63158;BMP280;49381;49.338;8.794;2023-02-15T01:24:02;101766.09;;;3.41
63158;BMP280;49381;49.338;8.794;2023-02-15T01:26:03;101769.47;;;3.42
63158;BMP280;49381;49.338;8.794;2023-02-15T01:28:04;101770.31;;;3.42
63158;BMP280;49381;49.338;8.794;2023-02-15T01:30:05;101768.88;;;3.46
63158;BMP280;49381;49.338;8.794;2023-02-15T01:32:06;101762.13;;;3.45
63158;BMP280;49381;49.338;8.794;2023-02-15T01:34:08;101766.34;;;3.46
63158;BMP280;49381;49.338;8.794;2023-02-15T01:36:09;101768.06;;;3.47
63158;BMP280;49381;49.338;8.794;2023-02-15T01:38:09;101766.53;;;3.49
63158;BMP280;49381;49.338;8.794;2023-02-15T01:40:13;101767.41;;;3.35
63158;BMP280;49381;49.338;8.794;2023-02-15T01:42:21;101777.75;;;3.12
63158;BMP280;49381;49.338;8.794;2023-02-15T01:44:45;101775.00;;;3.22
63158;BMP280;49381;49.338;8.794;2023-02-15T01:46:51;101764.44;;;3.27
63158;BMP280;49381;49.338;8.794;2023-02-15T01:48:57;101767.22;;;3.32
63158;BMP280;49381;49.338;8.794;2023-02-15T01:51:01;101756.31;;;3.31
63158;BMP280;49381;49.338;8.794;2023-02-15T01:53:06;101756.19;;;3.28
63158;BMP280;49381;49.338;8.794;2023-02-15T01:55:08;101765.31;;;3.28
63158;BMP280;49381;49.338;8.794;2023-02-15T01:57:11;101762.56;;;3.24
63158;BMP280;49381;49.338;8.794;2023-02-15T01:59:16;101764.38;;;3.26
63158;BMP280;49381;49.338;8.794;2023-02-15T02:01:17;101765.31;;;3.28
63158;BMP280;49381;49.338;8.794;2023-02-15T02:03:20;101755.47;;;3.31
63158;BMP280;49381;49.338;8.794;2023-02-15T02:05:25;101751.84;;;3.26
63158;BMP280;49381;49.338;8.794;2023-02-15T02:07:29;101764.97;;;3.22
63158;BMP280;49381;49.338;8.794;2023-02-15T02:11:35;101747.69;;;3.26
63158;BMP280;49381;49.338;8.794;2023-02-15T02:13:36;101757.19;;;3.32
63158;BMP280;49381;49.338;8.794;2023-02-15T02:15:41;101749.53;;;3.29
63158;BMP280;49381;49.338;8.794;2023-02-15T02:17:54;101745.78;;;3.37
63158;BMP280;49381;49.338;8.794;2023-02-15T02:20:25;101740.75;;;3.37
63158;BMP280;49381;49.338;8.794;2023-02-15T02:27:48;101737.31;;;3.49
63158;BMP280;49381;49.338;8.794;2023-02-15T02:33:01;101732.69;;;3.56
63158;BMP280;49381;49.338;8.794;2023-02-15T02:35:11;101736.94;;;3.57
63158;BMP280;49381;49.338;8.794;2023-02-15T02:37:22;101728.47;;;3.55
63158;BMP280;49381;49.338;8.794;2023-02-15T02:39:30;101724.41;;;3.57
63158;BMP280;49381;49.338;8.794;2023-02-15T02:41:41;101712.06;;;3.46
63158;BMP280;49381;49.338;8.794;2023-02-15T02:43:48;101718.47;;;3.27
63158;BMP280;49381;49.338;8.794;2023-02-15T02:45:52;101717.41;;;3.38
63158;BMP280;49381;49.338;8.794;2023-02-15T02:48:02;101713.38;;;3.40
63158;BMP280;49381;49.338;8.794;2023-02-15T02:50:06;101715.03;;;3.39
63158;BMP280;49381;49.338;8.794;2023-02-15T02:52:38;101710.88;;;3.40
63158;BMP280;49381;49.338;8.794;2023-02-15T02:54:38;101713.66;;;3.30
63158;BMP280;49381;49.338;8.794;2023-02-15T02:56:41;101710.34;;;3.31
63158;BMP280;49381;49.338;8.794;2023-02-15T02:58:46;101713.66;;;3.30
63158;BMP280;49381;49.338;8.794;2023-02-15T03:00:50;101714.16;;;3.25
63158;BMP280;49381;49.338;8.794;2023-02-15T03:02:57;101720.03;;;3.25
63158;BMP280;49381;49.338;8.794;2023-02-15T03:05:04;101711.41;;;3.34
63158;BMP280;49381;49.338;8.794;2023-02-15T03:07:08;101708.91;;;3.20
63158;BMP280;49381;49.338;8.794;2023-02-15T03:09:14;101703.28;;;3.24
63158;BMP280;49381;49.338;8.794;2023-02-15T03:11:15;101700.44;;;3.18
63158;BMP280;49381;49.338;8.794;2023-02-15T03:13:16;101703.63;;;3.30
63158;BMP280;49381;49.338;8.794;2023-02-15T03:15:20;101700.59;;;3.35
63158;BMP280;49381;49.338;8.794;2023-02-15T03:17:23;101697.47;;;3.39
63158;BMP280;49381;49.338;8.794;2023-02-15T03:19:27;101701.78;;;3.42
63158;BMP280;49381;49.338;8.794;2023-02-15T03:21:38;101703.28;;;3.38
63158;BMP280;49381;49.338;8.794;2023-02-15T03:23:40;101699.41;;;3.29
63158;BMP280;49381;49.338;8.794;2023-02-15T03:25:43;101689.25;;;3.27
63158;BMP280;49381;49.338;8.794;2023-02-15T03:27:49;101695.50;;;3.34
63158;BMP280;49381;49.338;8.794;2023-02-15T03:29:53;101687.53;;;3.41
63158;BMP280;49381;49.338;8.794;2023-02-15T03:31:58;101693.13;;;3.37
63158;BMP280;49381;49.338;8.794;2023-02-15T03:34:04;101694.78;;;3.36
63158;BMP280;49381;49.338;8.794;2023-02-15T03:36:10;101702.50;;;3.39
63158;BMP280;49381;49.338;8.794;2023-02-15T03:38:20;101707.66;;;3.42
63158;BMP280;49381;49.338;8.794;2023-02-15T03:40:28;101713.72;;;3.46
63158;BMP280;49381;49.338;8.794;2023-02-15T03:42:32;101716.41;;;3.49
63158;BMP280;49381;49.338;8.794;2023-02-15T03:44:41;101708.25;;;3.52
63158;BMP280;49381;49.338;8.794;2023-02-15T03:46:50;101708.41;;;3.55
63158;BMP280;49381;49.338;8.794;2023-02-15T03:48:53;101709.63;;;3.48
63158;BMP280;49381;49.338;8.794;2023-02-15T03:50:57;101702.75;;;3.44
63158;BMP280;49381;49.338;8.794;2023-02-15T03:52:59;101706.38;;;3.49
63158;BMP280;49381;49.338;8.794;2023-02-15T03:55:03;101704.13;;;3.53
63158;BMP280;49381;49.338;8.794;2023-02-15T03:57:06;101705.97;;;3.57
63158;BMP280;49381;49.338;8.794;2023-02-15T03:59:07;101694.41;;;3.59
63158;BMP280;49381;49.338;8.794;2023-02-15T04:01:13;101699.75;;;3.65
63158;BMP280;49381;49.338;8.794;2023-02-15T04:03:26;101698.72;;;3.61
63158;BMP280;49381;49.338;8.794;2023-02-15T04:05:28;101705.22;;;3.58
63158;BMP280;49381;49.338;8.794;2023-02-15T04:07:29;101713.75;;;3.61
63158;BMP280;49381;49.338;8.794;2023-02-15T04:09:29;101707.19;;;3.63
63158;BMP280;49381;49.338;8.794;2023-02-15T04:11:31;101705.44;;;3.62
63158;BMP280;49381;49.338;8.794;2023-02-15T04:13:32;101712.03;;;3.60
63158;BMP280;49381;49.338;8.794;2023-02-15T04:15:32;101711.09;;;3.58
63158;BMP280;49381;49.338;8.794;2023-02-15T04:17:33;101710.94;;;3.55
63158;BMP280;49381;49.338;8.794;2023-02-15T04:19:35;101710.00;;;3.53
63158;BMP280;49381;49.338;8.794;2023-02-15T04:21:35;101703.59;;;3.58
63158;BMP280;49381;49.338;8.794;2023-02-15T04:23:36;101709.53;;;3.60
63158;BMP280;49381;49.338;8.794;2023-02-15T04:25:36;101707.34;;;3.66
63158;BMP280;49381;49.338;8.794;2023-02-15T04:27:39;101708.94;;;3.64
63158;BMP280;49381;49.338;8.794;2023-02-15T04:29:40;101697.47;;;3.53
63158;BMP280;49381;49.338;8.794;2023-02-15T04:31:41;101701.75;;;3.56
63158;BMP280;49381;49.338;8.794;2023-02-15T04:33:41;101699.19;;;3.54
63158;BMP280;49381;49.338;8.794;2023-02-15T04:35:43;101693.91;;;3.50
63158;BMP280;49381;49.338;8.794;2023-02-15T04:37:43;101696.34;;;3.49
63158;BMP280;49381;49.338;8.794;2023-02-15T04:39:44;101693.06;;;3.50
63158;BMP280;49381;49.338;8.794;2023-02-15T04:41:45;101690.88;;;3.55
63158;BMP280;49381;49.338;8.794;2023-02-15T04:43:47;101700.38;;;3.61
63158;BMP280;49381;49.338;8.794;2023-02-15T04:45:48;101698.03;;;3.64
63158;BMP280;49381;49.338;8.794;2023-02-15T04:47:48;101695.78;;;3.68
63158;BMP280;49381;49.338;8.794;2023-02-15T04:49:49;101690.03;;;3.71
63158;BMP280;49381;49.338;8.794;2023-02-15T04:51:49;101690.75;;;3.68
63158;BMP280;49381;49.338;8.794;2023-02-15T04:53:50;101684.16;;;3.70
63158;BMP280;49381;49.338;8.794;2023-02-15T04:55:51;101686.22;;;3.77
63158;BMP280;49381;49.338;8.794;2023-02-15T04:57:51;101680.09;;;3.72
63158;BMP280;49381;49.338;8.794;2023-02-15T04:59:53;101675.00;;;3.71
63158;BMP280;49381;49.338;8.794;2023-02-15T05:01:56;101671.88;;;3.75
63158;BMP280;49381;49.338;8.794;2023-02-15T05:03:57;101668.88;;;3.66
63158;BMP280;49381;49.338;8.794;2023-02-15T05:05:57;101672.00;;;3.62
63158;BMP280;49381;49.338;8.794;2023-02-15T05:07:58;101667.69;;;3.59
63158;BMP280;49381;49.338;8.794;2023-02-15T05:09:58;101666.59;;;3.54
63158;BMP280;49381;49.338;8.794;2023-02-15T05:11:58;101669.09;;;3.54
63158;BMP280;49381;49.338;8.794;2023-02-15T05:13:59;101666.59;;;3.54
63158;BMP280;49381;49.338;8.794;2023-02-15T05:16:03;101663.28;;;3.55
63158;BMP280;49381;49.338;8.794;2023-02-15T05:18:03;101670.88;;;3.57
63158;BMP280;49381;49.338;8.794;2023-02-15T05:20:05;101673.63;;;3.61
63158;BMP280;49381;49.338;8.794;2023-02-15T05:22:06;101672.25;;;3.66
63158;BMP280;49381;49.338;8.794;2023-02-15T05:24:06;101672.31;;;3.68
63158;BMP280;49381;49.338;8.794;2023-02-15T05:26:15;101670.19;;;3.59
63158;BMP280;49381;49.338;8.794;2023-02-15T05:28:16;101668.31;;;3.55
63158;BMP280;49381;49.338;8.794;2023-02-15T05:30:16;101676.28;;;3.49
63158;BMP280;49381;49.338;8.794;2023-02-15T05:32:19;101666.09;;;3.31
63158;BMP280;49381;49.338;8.794;2023-02-15T05:34:19;101680.47;;;3.34
63158;BMP280;49381;49.338;8.794;2023-02-15T05:36:19;101676.47;;;3.37
63158;BMP280;49381;49.338;8.794;2023-02-15T05:38:20;101667.47;;;3.41
63158;BMP280;49381;49.338;8.794;2023-02-15T05:40:20;101668.41;;;3.43
63158;BMP280;49381;49.338;8.794;2023-02-15T05:42:21;101680.88;;;3.41
63158;BMP280;49381;49.338;8.794;2023-02-15T05:44:21;101675.84;;;3.41
63158;BMP280;49381;49.338;8.794;2023-02-15T05:46:22;101673.41;;;3.43
63158;BMP280;49381;49.338;8.794;2023-02-15T05:48:25;101679.06;;;3.39
63158;BMP280;49381;49.338;8.794;2023-02-15T05:50:26;101676.38;;;3.36
63158;BMP280;49381;49.338;8.794;2023-02-15T05:52:26;101671.16;;;3.47
63158;BMP280;49381;49.338;8.794;2023-02-15T05:54:28;101685.19;;;3.44
63158;BMP280;49381;49.338;8.794;2023-02-15T05:56:28;101684.22;;;3.42
63158;BMP280;49381;49.338;8.794;2023-02-15T05:58:31;101689.09;;;3.39
63158;BMP280;49381;49.338;8.794;2023-02-15T06:00:32;101693.84;;;3.34
63158;BMP280;49381;49.338;8.794;2023-02-15T06:02:33;101694.09;;;3.39
63158;BMP280;49381;49.338;8.794;2023-02-15T06:04:38;101701.63;;;3.39
63158;BMP280;49381;49.338;8.794;2023-02-15T06:06:38;101699.38;;;3.43
63158;BMP280;49381;49.338;8.794;2023-02-15T06:08:41;101697.03;;;3.46
63158;BMP280;49381;49.338;8.794;2023-02-15T06:10:45;101693.06;;;3.50
63158;BMP280;49381;49.338;8.794;2023-02-15T06:12:45;101696.50;;;3.51
63158;BMP280;49381;49.338;8.794;2023-02-15T06:14:46;101695.97;;;3.43
63158;BMP280;49381;49.338;8.794;2023-02-15T06:16:56;101696.50;;;3.37
63158;BMP280;49381;49.338;8.794;2023-02-15T06:19:03;101704.28;;;3.42
63158;BMP280;49381;49.338;8.794;2023-02-15T06:21:07;101703.94;;;3.36
63158;BMP280;49381;49.338;8.794;2023-02-15T06:23:14;101708.19;;;3.37
63158;BMP280;49381;49.338;8.794;2023-02-15T06:25:16;101704.28;;;3.42
63158;BMP280;49381;49.338;8.794;2023-02-15T06:27:18;101705.41;;;3.47
63158;BMP280;49381;49.338;8.794;2023-02-15T06:29:19;101701.00;;;3.43
63158;BMP280;49381;49.338;8.794;2023-02-15T06:31:19;101699.47;;;3.45
63158;BMP280;49381;49.338;8.794;2023-02-15T06:33:25;101707.91;;;3.47
63158;BMP280;49381;49.338;8.794;2023-02-15T06:35:26;101712.91;;;3.47
63158;BMP280;49381;49.338;8.794;2023-02-15T06:37:46;101726.84;;;3.42
63158;BMP280;49381;49.338;8.794;2023-02-15T06:39:47;101718.13;;;3.35
63158;BMP280;49381;49.338;8.794;2023-02-15T06:41:47;101725.19;;;3.42
63158;BMP280;49381;49.338;8.794;2023-02-15T06:44:02;101727.03;;;3.45
63158;BMP280;49381;49.338;8.794;2023-02-15T06:46:03;101719.84;;;3.36
63158;BMP280;49381;49.338;8.794;2023-02-15T06:48:08;101729.28;;;3.26
63158;BMP280;49381;49.338;8.794;2023-02-15T06:50:17;101716.94;;;3.29
63158;BMP280;49381;49.338;8.794;2023-02-15T06:52:17;101717.09;;;3.18
63158;BMP280;49381;49.338;8.794;2023-02-15T06:54:22;101720.31;;;3.15
63158;BMP280;49381;49.338;8.794;2023-02-15T06:56:24;101725.66;;;3.21
63158;BMP280;49381;49.338;8.794;2023-02-15T06:58:24;101723.25;;;3.08
63158;BMP280;49381;49.338;8.794;2023-02-15T07:00:31;101719.19;;;3.10
63158;BMP280;49381;49.338;8.794;2023-02-15T07:02:34;101726.63;;;3.09
63158;BMP280;49381;49.338;8.794;2023-02-15T07:04:37;101726.63;;;3.09
63158;BMP280;49381;49.338;8.794;2023-02-15T07:06:40;101721.69;;;3.10
63158;BMP280;49381;49.338;8.794;2023-02-15T07:08:43;101717.63;;;3.12
63158;BMP280;49381;49.338;8.794;2023-02-15T07:10:53;101723.66;;;3.01
63158;BMP280;49381;49.338;8.794;2023-02-15T07:12:53;101724.97;;;2.95
63158;BMP280;49381;49.338;8.794;2023-02-15T07:14:54;101726.88;;;2.99
63158;BMP280;49381;49.338;8.794;2023-02-15T07:16:54;101724.88;;;2.94
63158;BMP280;49381;49.338;8.794;2023-02-15T07:18:55;101725.50;;;3.04
63158;BMP280;49381;49.338;8.794;2023-02-15T07:20:55;101728.69;;;3.01
63158;BMP280;49381;49.338;8.794;2023-02-15T07:22:56;101728.16;;;3.07
63158;BMP280;49381;49.338;8.794;2023-02-15T07:24:56;101726.88;;;3.13
63158;BMP280;49381;49.338;8.794;2023-02-15T07:27:16;101733.78;;;3.17
63158;BMP280;49381;49.338;8.794;2023-02-15T07:29:21;101725.50;;;3.18
63158;BMP280;49381;49.338;8.794;2023-02-15T07:34:02;101735.22;;;3.28
63158;BMP280;49381;49.338;8.794;2023-02-15T07:36:34;101730.41;;;3.31
63158;BMP280;49381;49.338;8.794;2023-02-15T07:38:39;101732.13;;;3.32
63158;BMP280;49381;49.338;8.794;2023-02-15T07:51:16;101736.81;;;3.26
63158;BMP280;49381;49.338;8.794;2023-02-15T07:53:26;101735.53;;;3.18
63158;BMP280;49381;49.338;8.794;2023-02-15T08:01:07;101739.22;;;2.96
63158;BMP280;49381;49.338;8.794;2023-02-15T08:05:27;101734.19;;;2.96
63158;BMP280;49381;49.338;8.794;2023-02-15T08:05:51;101727.56;;;2.97
63158;BMP280;49381;49.338;8.794;2023-02-15T08:15:51;101731.16;;;2.87
63158;BMP280;49381;49.338;8.794;2023-02-15T08:22:56;101728.00;;;2.90
63158;BMP280;49381;49.338;8.794;2023-02-15T08:25:04;101732.13;;;2.89
63158;BMP280;49381;49.338;8.794;2023-02-15T08:27:21;101729.28;;;2.98
63158;BMP280;49381;49.338;8.794;2023-02-15T08:30:32;101723.31;;;2.96
63158;BMP280;49381;49.338;8.794;2023-02-15T08:32:39;101719.44;;;2.86
63158;BMP280;49381;49.338;8.794;2023-02-15T08:38:02;101719.44;;;2.86
63158;BMP280;49381;49.338;8.794;2023-02-15T08:40:56;101723.31;;;2.81
63158;BMP280;49381;49.338;8.794;2023-02-15T08:43:18;101725.13;;;2.84
63158;BMP280;49381;49.338;8.794;2023-02-15T08:45:40;101723.75;;;2.89
63158;BMP280;49381;49.338;8.794;2023-02-15T08:55:56;101717.25;;;2.92
63158;BMP280;49381;49.338;8.794;2023-02-15T09:00:33;101716.75;;;2.98
63158;BMP280;49381;49.338;8.794;2023-02-15T09:02:57;101712.13;;;3.03
63158;BMP280;49381;49.338;8.794;2023-02-15T09:07:56;101710.28;;;3.01
63158;BMP280;49381;49.338;8.794;2023-02-15T09:13:08;101695.44;;;3.04
63158;BMP280;49381;49.338;8.794;2023-02-15T09:15:54;101701.19;;;3.03
63158;BMP280;49381;49.338;8.794;2023-02-15T10:40:11;101692.22;;;3.35
63158;BMP280;49381;49.338;8.794;2023-02-15T10:42:20;101685.94;;;3.43
63158;BMP280;49381;49.338;8.794;2023-02-15T10:44:36;101693.66;;;3.46
63158;BMP280;49381;49.338;8.794;2023-02-15T10:47:08;101689.44;;;3.45
63158;BMP280;49381;49.338;8.794;2023-02-15T10:51:58;101684.06;;;3.53
63158;BMP280;49381;49.338;8.794;2023-02-15T10:54:16;101689.69;;;3.49
63158;BMP280;49381;49.338;8.794;2023-02-15T11:01:25;101682.56;;;3.56
63158;BMP280;49381;49.338;8.794;2023-02-15T11:03:54;101681.78;;;3.57
63158;BMP280;49381;49.338;8.794;2023-02-15T11:08:24;101680.06;;;3.56
63158;BMP280;49381;49.338;8.794;2023-02-15T11:10:32;101681.78;;;3.57
63158;BMP280;49381;49.338;8.794;2023-02-15T11:12:41;101679.25;;;3.57
63158;BMP280;49381;49.338;8.794;2023-02-15T11:14:49;101669.16;;;3.56
63158;BMP280;49381;49.338;8.794;2023-02-15T11:16:52;101669.22;;;3.57
63158;BMP280;49381;49.338;8.794;2023-02-15T11:19:12;101672.97;;;3.64
63158;BMP280;49381;49.338;8.794;2023-02-15T11:21:19;101662.94;;;3.64
63158;BMP280;49381;49.338;8.794;2023-02-15T11:23:20;101658.44;;;3.58
63158;BMP280;49381;49.338;8.794;2023-02-15T11:25:30;101660.16;;;3.59
63158;BMP280;49381;49.338;8.794;2023-02-15T11:27:43;101665.25;;;3.61
63158;BMP280;49381;49.338;8.794;2023-02-15T11:30:16;101659.38;;;3.60
63158;BMP280;49381;49.338;8.794;2023-02-15T11:32:33;101657.06;;;3.63
63158;BMP280;49381;49.338;8.794;2023-02-15T11:34:55;101655.31;;;3.62
63158;BMP280;49381;49.338;8.794;2023-02-15T11:37:05;101649.06;;;3.70
63158;BMP280;49381;49.338;8.794;2023-02-15T11:39:11;101646.56;;;3.70
63158;BMP280;49381;49.338;8.794;2023-02-15T11:41:21;101642.28;;;3.83
63158;BMP280;49381;49.338;8.794;2023-02-15T11:43:33;101630.13;;;3.91
63158;BMP280;49381;49.338;8.794;2023-02-15T11:45:41;101632.69;;;3.92
63158;BMP280;49381;49.338;8.794;2023-02-15T11:48:01;101625.88;;;3.90
63158;BMP280;49381;49.338;8.794;2023-02-15T11:50:11;101629.00;;;4.01
63158;BMP280;49381;49.338;8.794;2023-02-15T11:52:18;101626.75;;;4.06
63158;BMP280;49381;49.338;8.794;2023-02-15T11:54:25;101624.31;;;4.07
63158;BMP280;49381;49.338;8.794;2023-02-15T11:56:37;101630.91;;;4.05
63158;BMP280;49381;49.338;8.794;2023-02-15T11:58:47;101632.25;;;3.99
63158;BMP280;49381;49.338;8.794;2023-02-15T12:00:52;101623.00;;;3.98
63158;BMP280;49381;49.338;8.794;2023-02-15T12:03:06;101619.47;;;3.95
63158;BMP280;49381;49.338;8.794;2023-02-15T12:05:20;101615.69;;;4.02
63158;BMP280;49381;49.338;8.794;2023-02-15T12:07:27;101617.75;;;4.09
63158;BMP280;49381;49.338;8.794;2023-02-15T12:09:29;101609.66;;;4.15
63158;BMP280;49381;49.338;8.794;2023-02-15T12:22:18;101592.41;;;4.21
63158;BMP280;49381;49.338;8.794;2023-02-15T12:24:24;101595.44;;;4.31
63158;BMP280;49381;49.338;8.794;2023-02-15T12:29:20;101583.50;;;4.43
63158;BMP280;49381;49.338;8.794;2023-02-15T12:31:42;101583.25;;;4.54
63158;BMP280;49381;49.338;8.794;2023-02-15T12:33:48;101578.44;;;4.58
63158;BMP280;49381;49.338;8.794;2023-02-15T12:36:12;101579.31;;;4.59
63158;BMP280;49381;49.338;8.794;2023-02-15T12:38:44;101577.66;;;4.59
63158;BMP280;49381;49.338;8.794;2023-02-15T12:41:22;101563.97;;;4.70
63158;BMP280;49381;49.338;8.794;2023-02-15T12:43:34;101562.31;;;4.71
63158;BMP280;49381;49.338;8.794;2023-02-15T12:54:55;101556.66;;;4.75
63158;BMP280;49381;49.338;8.794;2023-02-15T12:57:52;101550.88;;;4.77
63158;BMP280;49381;49.338;8.794;2023-02-15T13:26:11;101505.53;;;4.91
63158;BMP280;49381;49.338;8.794;2023-02-15T13:28:39;101512.69;;;5.01
63158;BMP280;49381;49.338;8.794;2023-02-15T13:39:00;101496.00;;;5.20
63158;BMP280;49381;49.338;8.794;2023-02-15T13:41:46;101495.50;;;5.27
63158;BMP280;49381;49.338;8.794;2023-02-15T13:44:18;101485.78;;;5.34
63158;BMP280;49381;49.338;8.794;2023-02-15T13:46:48;101490.81;;;5.34
63158;BMP280;49381;49.338;8.794;2023-02-15T13:49:12;101482.63;;;5.38
63158;BMP280;49381;49.338;8.794;2023-02-15T13:51:48;101478.72;;;5.45
63158;BMP280;49381;49.338;8.794;2023-02-15T13:57:01;101465.75;;;5.54
63158;BMP280;49381;49.338;8.794;2023-02-15T13:59:48;101464.06;;;5.55
63158;BMP280;49381;49.338;8.794;2023-02-15T14:02:28;101456.69;;;5.58
63158;BMP280;49381;49.338;8.794;2023-02-15T14:07:32;101448.59;;;5.65
63158;BMP280;49381;49.338;8.794;2023-02-15T14:20:14;101453.84;;;5.88
63158;BMP280;49381;49.338;8.794;2023-02-15T14:22:53;101453.84;;;5.88
63158;BMP280;49381;49.338;8.794;2023-02-15T15:30:10;101424.13;;;6.40
63158;BMP280;49381;49.338;8.794;2023-02-15T15:35:43;101413.38;;;6.44
63158;BMP280;49381;49.338;8.794;2023-02-15T15:51:52;101426.22;;;6.29
63158;BMP280;49381;49.338;8.794;2023-02-15T15:54:24;101426.09;;;6.27
63158;BMP280;49381;49.338;8.794;2023-02-15T16:08:27;101417.13;;;6.13
63158;BMP280;49381;49.338;8.794;2023-02-15T16:14:03;101415.91;;;6.03
63158;BMP280;49381;49.338;8.794;2023-02-15T16:15:50;101416.63;;;6.01
63158;BMP280;49381;49.338;8.794;2023-02-15T16:18:00;101424.94;;;5.99
63158;BMP280;49381;49.338;8.794;2023-02-15T16:20:13;101425.59;;;5.95
63158;BMP280;49381;49.338;8.794;2023-02-15T16:22:32;101431.47;;;5.95
63158;BMP280;49381;49.338;8.794;2023-02-15T16:24:52;101433.03;;;5.92
63158;BMP280;49381;49.338;8.794;2023-02-15T16:32:17;101438.34;;;5.79
63158;BMP280;49381;49.338;8.794;2023-02-15T16:34:58;101432.31;;;5.76
63158;BMP280;49381;49.338;8.794;2023-02-15T16:37:21;101435.63;;;5.75
63158;BMP280;49381;49.338;8.794;2023-02-15T16:39:40;101446.44;;;5.72
63158;BMP280;49381;49.338;8.794;2023-02-15T16:42:01;101441.41;;;5.72
63158;BMP280;49381;49.338;8.794;2023-02-15T16:44:11;101443.13;;;5.73
63158;BMP280;49381;49.338;8.794;2023-02-15T16:46:41;101443.59;;;5.66
63158;BMP280;49381;49.338;8.794;2023-02-15T16:49:17;101451.91;;;5.64
63158;BMP280;49381;49.338;8.794;2023-02-15T16:51:28;101447.22;;;5.52
63158;BMP280;49381;49.338;8.794;2023-02-15T16:53:46;101438.63;;;5.48
63158;BMP280;49381;49.338;8.794;2023-02-15T16:56:02;101444.31;;;5.44
63158;BMP280;49381;49.338;8.794;2023-02-15T16:58:05;101449.97;;;5.40
63158;BMP280;49381;49.338;8.794;2023-02-15T17:00:14;101457.22;;;5.32
63158;BMP280;49381;49.338;8.794;2023-02-15T17:12:03;101460.97;;;5.23
63158;BMP280;49381;49.338;8.794;2023-02-15T17:18:16;101463.72;;;5.10
63158;BMP280;49381;49.338;8.794;2023-02-15T17:20:24;101466.75;;;5.03
63158;BMP280;49381;49.338;8.794;2023-02-15T17:22:29;101470.72;;;4.99
63158;BMP280;49381;49.338;8.794;2023-02-15T17:24:38;101462.16;;;4.95
63158;BMP280;49381;49.338;8.794;2023-02-15T17:26:39;101460.31;;;4.91
63158;BMP280;49381;49.338;8.794;2023-02-15T17:28:44;101465.25;;;4.90
63158;BMP280;49381;49.338;8.794;2023-02-15T17:30:46;101461.63;;;4.83
63158;BMP280;49381;49.338;8.794;2023-02-15T17:33:01;101466.38;;;4.77
63158;BMP280;49381;49.338;8.794;2023-02-15T17:35:29;101463.75;;;4.76
63158;BMP280;49381;49.338;8.794;2023-02-15T17:37:47;101453.59;;;4.73
63158;BMP280;49381;49.338;8.794;2023-02-15T17:39:50;101456.81;;;4.71
63158;BMP280;49381;49.338;8.794;2023-02-15T17:41:50;101454.25;;;4.69
63158;BMP280;49381;49.338;8.794;2023-02-15T17:43:51;101450.66;;;4.64
63158;BMP280;49381;49.338;8.794;2023-02-15T17:45:57;101461.50;;;4.63
63158;BMP280;49381;49.338;8.794;2023-02-15T17:48:03;101469.81;;;4.62
63158;BMP280;49381;49.338;8.794;2023-02-15T17:50:20;101460.31;;;4.57
63158;BMP280;49381;49.338;8.794;2023-02-15T17:52:21;101456.19;;;4.57
63158;BMP280;49381;49.338;8.794;2023-02-15T17:54:22;101464.38;;;4.53
63158;BMP280;49381;49.338;8.794;2023-02-15T17:56:31;101469.22;;;4.50
63158;BMP280;49381;49.338;8.794;2023-02-15T17:58:33;101473.97;;;4.45
63158;BMP280;49381;49.338;8.794;2023-02-15T18:00:38;101467.94;;;4.41